createdAt,value
2023-06-07T00:00:09.770Z,12.04
2023-06-07T00:02:43.627Z,12.05
2023-06-07T00:05:14.125Z,12.03
2023-06-07T00:07:42.184Z,11.94
2023-06-07T00:10:10.337Z,11.97
2023-06-07T00:12:39.536Z,11.97
2023-06-07T00:15:09.017Z,11.95
2023-06-07T00:17:38.788Z,11.92
2023-06-07T00:20:09.979Z,11.96
2023-06-07T00:22:38.466Z,11.90
2023-06-07T00:25:07.019Z,11.89
2023-06-07T00:27:34.736Z,11.82
2023-06-07T00:30:05.029Z,11.89
2023-06-07T00:32:33.321Z,11.88
2023-06-07T00:35:01.038Z,11.91
2023-06-07T00:37:28.582Z,11.89
2023-06-07T00:39:56.111Z,11.83
2023-06-07T00:42:23.759Z,11.78
2023-06-07T00:44:51.549Z,11.78
2023-06-07T00:47:20.574Z,11.73
2023-06-07T00:49:49.532Z,11.72
2023-06-07T00:52:17.182Z,11.74
2023-06-07T00:54:44.738Z,11.76
2023-06-07T00:57:12.684Z,11.72
2023-06-07T00:59:40.274Z,11.68
2023-06-07T01:02:07.936Z,11.62
2023-06-07T01:04:41.681Z,11.55
2023-06-07T01:07:09.576Z,11.57
2023-06-07T01:09:37.675Z,11.53
2023-06-07T01:12:07.741Z,11.51
2023-06-07T01:14:35.588Z,11.42
2023-06-07T01:17:04.126Z,11.55
2023-06-07T01:19:33.307Z,11.56
2023-06-07T01:22:05.141Z,11.50
2023-06-07T01:24:36.708Z,11.63
2023-06-07T01:27:05.437Z,11.68
2023-06-07T01:29:33.134Z,11.67
2023-06-07T01:32:04.393Z,11.71
2023-06-07T01:34:32.263Z,11.76
2023-06-07T01:36:59.864Z,11.75
2023-06-07T01:39:28.727Z,11.75
2023-06-07T01:41:58.461Z,11.72
2023-06-07T01:44:26.435Z,11.77
2023-06-07T01:46:54.033Z,11.77
2023-06-07T01:49:21.566Z,11.80
2023-06-07T01:51:49.138Z,11.80
2023-06-07T01:54:17.403Z,11.75
2023-06-07T01:56:49.792Z,11.84
2023-06-07T01:59:23.749Z,11.93
2023-06-07T02:01:57.559Z,11.94
2023-06-07T02:04:27.531Z,12.00
2023-06-07T02:06:57.093Z,12.06
2023-06-07T02:09:25.428Z,12.07
2023-06-07T02:11:53.688Z,12.18
2023-06-07T02:14:22.794Z,12.23
2023-06-07T02:16:50.386Z,12.27
2023-06-07T02:19:18.008Z,12.24
2023-06-07T02:21:45.794Z,12.34
2023-06-07T02:24:13.589Z,12.37
2023-06-07T02:26:41.434Z,12.44
2023-06-07T02:29:09.931Z,12.48
2023-06-07T02:31:39.010Z,12.52
2023-06-07T02:34:06.624Z,12.58
2023-06-07T02:36:34.503Z,12.61
2023-06-07T02:39:02.320Z,12.63
2023-06-07T02:41:30.571Z,12.66
2023-06-07T02:43:58.132Z,12.69
2023-06-07T02:46:25.757Z,12.75
2023-06-07T02:48:54.670Z,12.68
2023-06-07T02:51:22.260Z,12.76
2023-06-07T02:53:50.331Z,12.74
2023-06-07T02:56:18.823Z,12.81
2023-06-07T02:58:46.343Z,12.74
2023-06-07T03:01:15.308Z,12.74
2023-06-07T03:03:44.164Z,12.77
2023-06-07T03:06:13.167Z,12.72
2023-06-07T03:08:40.737Z,12.73
2023-06-07T03:11:08.323Z,12.83
2023-06-07T03:13:35.849Z,12.79
2023-06-07T03:16:03.424Z,12.82
2023-06-07T03:18:32.195Z,12.79
2023-06-07T03:20:59.743Z,12.91
2023-06-07T03:23:30.029Z,12.93
2023-06-07T03:25:59.908Z,12.95
2023-06-07T03:28:27.539Z,12.94
2023-06-07T03:30:55.179Z,12.92
2023-06-07T03:33:22.744Z,12.91
2023-06-07T03:35:50.509Z,12.95
2023-06-07T03:38:18.055Z,13.02
2023-06-07T03:40:46.937Z,12.96
2023-06-07T03:43:14.476Z,13.01
2023-06-07T03:45:42.049Z,13.11
2023-06-07T03:48:09.925Z,13.02
2023-06-07T03:50:37.593Z,13.09
2023-06-07T03:53:05.137Z,13.15
2023-06-07T03:55:32.683Z,13.25
2023-06-07T03:58:01.562Z,13.19
2023-06-07T04:00:29.101Z,13.22
2023-06-07T04:02:56.837Z,13.27
2023-06-07T04:05:26.543Z,13.34
2023-06-07T04:08:00.638Z,13.38
2023-06-07T04:10:28.406Z,13.38
2023-06-07T04:12:55.899Z,13.24
2023-06-07T04:15:25.235Z,13.17
2023-06-07T04:17:52.851Z,13.15
2023-06-07T04:20:20.787Z,13.09
2023-06-07T04:22:52.736Z,13.07
2023-06-07T04:25:22.774Z,13.05
2023-06-07T04:27:50.354Z,13.06
2023-06-07T04:30:19.178Z,13.06
2023-06-07T04:32:48.163Z,13.08
2023-06-07T04:35:15.830Z,13.14
2023-06-07T04:37:46.629Z,13.22
2023-06-07T04:40:15.104Z,13.36
2023-06-07T04:42:47.701Z,13.35
2023-06-07T04:45:15.438Z,13.39
2023-06-07T04:47:46.823Z,13.52
2023-06-07T04:50:17.482Z,13.77
2023-06-07T04:52:47.816Z,13.86
2023-06-07T04:55:15.396Z,13.86
2023-06-07T04:57:44.101Z,13.78
2023-06-07T05:00:15.295Z,13.80
2023-06-07T05:02:45.443Z,13.79
2023-06-07T05:05:14.253Z,13.78
2023-06-07T05:07:45.514Z,13.92
2023-06-07T05:10:13.133Z,13.98
2023-06-07T05:12:40.672Z,13.98
2023-06-07T05:15:09.254Z,14.06
2023-06-07T05:17:37.573Z,14.23
2023-06-07T05:20:11.283Z,14.40
2023-06-07T05:22:40.756Z,14.53
2023-06-07T05:25:11.457Z,14.58
2023-06-07T05:27:39.132Z,14.57
2023-06-07T05:30:08.490Z,14.66
2023-06-07T05:32:36.990Z,14.67
2023-06-07T05:35:05.620Z,14.61
2023-06-07T05:37:33.602Z,14.59
2023-06-07T05:40:01.145Z,14.76
2023-06-07T05:42:29.996Z,14.96
2023-06-07T05:44:57.582Z,15.18
2023-06-07T05:47:26.611Z,15.38
2023-06-07T05:49:55.056Z,15.67
2023-06-07T05:52:22.630Z,15.84
2023-06-07T05:54:51.158Z,16.01
2023-06-07T05:57:18.953Z,16.23
2023-06-07T05:59:47.869Z,16.58
2023-06-07T06:02:17.699Z,17.04
2023-06-07T06:04:45.353Z,17.46
2023-06-07T06:07:12.996Z,17.59
2023-06-07T06:09:42.362Z,17.74
2023-06-07T06:12:11.096Z,16.98
2023-06-07T06:14:38.737Z,17.64
2023-06-07T06:17:08.272Z,17.72
2023-06-07T06:19:36.096Z,17.56
2023-06-07T06:22:03.785Z,17.90
2023-06-07T06:24:31.349Z,18.03
2023-06-07T06:26:58.874Z,17.96
2023-06-07T06:29:26.490Z,18.48
2023-06-07T06:31:54.583Z,18.12
2023-06-07T06:34:24.187Z,18.30
2023-06-07T06:36:52.189Z,18.03
2023-06-07T06:39:19.780Z,17.82
2023-06-07T06:41:47.474Z,17.91
2023-06-07T06:44:15.007Z,18.18
2023-06-07T06:46:42.676Z,17.99
2023-06-07T06:49:13.101Z,17.96
2023-06-07T06:51:45.543Z,18.08
2023-06-07T06:54:13.718Z,17.65
2023-06-07T06:56:41.575Z,17.88
2023-06-07T06:59:09.137Z,17.99
2023-06-07T07:01:47.853Z,17.56
2023-06-07T07:04:16.636Z,17.70
2023-06-07T07:06:45.846Z,17.69
2023-06-07T07:09:14.334Z,17.69
2023-06-07T07:11:42.134Z,17.85
2023-06-07T07:14:09.688Z,17.95
2023-06-07T07:16:39.141Z,17.75
2023-06-07T07:19:06.956Z,18.08
2023-06-07T07:21:34.484Z,18.07
2023-06-07T07:24:03.453Z,18.35
2023-06-07T07:26:31.012Z,18.64
2023-06-07T07:28:58.662Z,18.74
2023-06-07T07:31:26.274Z,18.45
2023-06-07T07:33:53.993Z,18.39
2023-06-07T07:36:22.573Z,18.63
2023-06-07T07:38:50.197Z,18.37
2023-06-07T07:41:19.421Z,18.30
2023-06-07T07:43:47.262Z,18.11
2023-06-07T07:46:15.228Z,18.54
2023-06-07T07:48:42.779Z,18.88
2023-06-07T07:51:10.499Z,19.13
2023-06-07T07:53:38.010Z,19.23
2023-06-07T07:56:06.019Z,19.50
2023-06-07T07:58:34.901Z,19.36
2023-06-07T08:01:02.640Z,19.40
2023-06-07T08:03:30.854Z,19.39
2023-06-07T08:05:58.682Z,19.12
2023-06-07T08:08:26.192Z,19.01
2023-06-07T08:10:53.950Z,18.80
2023-06-07T08:13:21.493Z,19.12
2023-06-07T08:15:50.452Z,19.56
2023-06-07T08:18:18.362Z,19.50
2023-06-07T08:20:46.331Z,19.58
2023-06-07T08:23:13.961Z,19.66
2023-06-07T08:25:41.709Z,19.60
2023-06-07T08:28:10.154Z,19.85
2023-06-07T08:30:37.725Z,19.84
2023-06-07T08:33:07.079Z,19.75
2023-06-07T08:35:34.640Z,20.43
2023-06-07T08:38:02.181Z,20.39
2023-06-07T08:40:31.269Z,21.06
2023-06-07T08:42:58.791Z,20.68
2023-06-07T08:45:26.413Z,20.33
2023-06-07T08:47:55.886Z,19.73
2023-06-07T08:50:25.570Z,20.49
2023-06-07T08:52:55.871Z,20.66
2023-06-07T08:55:23.570Z,20.87
2023-06-07T08:57:53.594Z,20.67
2023-06-07T09:00:23.652Z,20.78
2023-06-07T09:02:53.813Z,20.93
2023-06-07T09:05:21.772Z,20.74
2023-06-07T09:07:50.949Z,20.72
2023-06-07T09:10:19.437Z,20.62
2023-06-07T09:12:47.628Z,20.76
2023-06-07T09:15:18.807Z,21.13
2023-06-07T09:17:57.197Z,21.22
2023-06-07T09:20:26.262Z,21.27
2023-06-07T09:23:04.168Z,21.27
2023-06-07T09:25:32.283Z,20.92
2023-06-07T09:28:00.060Z,20.75
2023-06-07T09:30:27.859Z,20.50
2023-06-07T09:32:55.881Z,20.37
2023-06-07T09:35:24.985Z,20.21
2023-06-07T09:37:54.005Z,20.12
2023-06-07T09:40:24.342Z,20.46
2023-06-07T09:42:59.384Z,20.99
2023-06-07T09:45:28.042Z,21.31
2023-06-07T09:48:05.857Z,21.68
2023-06-07T09:50:33.569Z,21.81
2023-06-07T09:53:02.546Z,21.37
2023-06-07T09:55:32.436Z,21.28
2023-06-07T09:58:00.980Z,20.96
2023-06-07T10:00:28.923Z,21.20
2023-06-07T10:03:06.687Z,21.69
2023-06-07T10:05:35.304Z,22.01
2023-06-07T10:08:03.208Z,22.22
2023-06-07T10:10:32.618Z,22.01
2023-06-07T10:13:00.941Z,21.83
2023-06-07T10:15:30.390Z,21.75
2023-06-07T10:18:02.451Z,21.69
2023-06-07T10:20:32.094Z,21.46
2023-06-07T10:23:04.651Z,21.29
2023-06-07T10:25:38.584Z,20.95
2023-06-07T10:28:12.535Z,21.16
2023-06-07T10:30:44.663Z,21.27
2023-06-07T10:33:12.558Z,21.93
2023-06-07T10:35:40.578Z,22.32
2023-06-07T10:38:09.398Z,22.52
2023-06-07T10:40:38.510Z,22.79
2023-06-07T10:43:06.423Z,23.17
2023-06-07T10:45:33.963Z,23.76
2023-06-07T10:48:35.952Z,23.50
2023-06-07T10:51:03.930Z,23.49
2023-06-07T10:53:50.818Z,23.51
2023-06-07T10:56:32.451Z,23.36
2023-06-07T10:59:20.897Z,23.49
2023-06-07T11:01:50.300Z,23.49
2023-06-07T11:04:52.191Z,23.95
2023-06-07T11:07:22.197Z,24.33
2023-06-07T11:09:50.873Z,24.35
2023-06-07T11:12:51.659Z,24.56
2023-06-07T11:15:26.694Z,24.99
2023-06-07T11:17:55.882Z,24.85
2023-06-07T11:20:53.868Z,24.81
2023-06-07T11:23:29.340Z,25.25
2023-06-07T11:26:00.088Z,25.28
2023-06-07T11:28:29.124Z,25.24
2023-06-07T11:30:58.934Z,25.12
2023-06-07T11:33:27.632Z,25.18
2023-06-07T11:35:57.261Z,24.98
2023-06-07T11:38:27.264Z,25.12
2023-06-07T11:40:55.233Z,24.84
2023-06-07T11:43:25.013Z,25.32
2023-06-07T11:45:54.101Z,25.91
2023-06-07T11:48:23.296Z,26.41
2023-06-07T11:50:50.986Z,26.49
2023-06-07T11:53:18.495Z,26.80
2023-06-07T11:55:47.091Z,27.55
2023-06-07T11:58:14.934Z,27.69
2023-06-07T12:00:44.852Z,27.76
2023-06-07T12:03:13.933Z,27.68
2023-06-07T12:05:44.571Z,27.41
2023-06-07T12:08:14.696Z,27.02
2023-06-07T12:10:42.267Z,25.89
2023-06-07T12:13:12.099Z,25.98
2023-06-07T12:15:43.531Z,26.22
2023-06-07T12:18:15.143Z,25.42
2023-06-07T12:20:44.515Z,25.89
2023-06-07T12:23:13.180Z,25.85
2023-06-07T12:25:42.726Z,25.19
2023-06-07T12:28:13.176Z,25.23
2023-06-07T12:30:42.608Z,25.91
2023-06-07T12:33:14.423Z,26.12
2023-06-07T12:35:48.706Z,26.38
2023-06-07T12:38:16.586Z,28.60
2023-06-07T12:40:44.194Z,31.36
2023-06-07T12:43:11.773Z,34.12
2023-06-07T12:45:39.445Z,34.29
2023-06-07T12:48:07.452Z,32.97
2023-06-07T12:50:35.155Z,34.54
2023-06-07T12:53:04.115Z,35.38
2023-06-07T12:55:31.867Z,34.05
2023-06-07T12:58:00.367Z,35.10
2023-06-07T13:00:28.093Z,36.44
2023-06-07T13:02:55.755Z,37.62
2023-06-07T13:05:23.564Z,35.63
2023-06-07T13:07:51.666Z,35.80
2023-06-07T13:10:20.763Z,37.19
2023-06-07T13:12:48.539Z,36.59
2023-06-07T13:15:16.095Z,37.58
2023-06-07T13:17:43.980Z,36.81
2023-06-07T13:20:12.501Z,37.58
2023-06-07T13:22:40.051Z,38.92
2023-06-07T13:25:08.760Z,39.46
2023-06-07T13:27:38.317Z,37.15
2023-06-07T13:30:09.211Z,35.04
2023-06-07T13:32:36.928Z,32.69
2023-06-07T13:35:04.665Z,32.30
2023-06-07T13:37:32.229Z,31.06
2023-06-07T13:39:59.994Z,32.74
2023-06-07T13:42:27.572Z,35.56
2023-06-07T13:44:56.461Z,35.70
2023-06-07T13:47:24.338Z,37.09
2023-06-07T13:49:53.774Z,39.58
2023-06-07T13:52:21.583Z,39.40
2023-06-07T13:54:49.446Z,38.82
2023-06-07T13:57:17.084Z,37.16
2023-06-07T13:59:45.804Z,36.86
2023-06-07T14:02:16.074Z,38.92
2023-06-07T14:04:44.277Z,38.16
2023-06-07T14:07:11.955Z,38.83
2023-06-07T14:09:39.490Z,35.48
2023-06-07T14:12:09.444Z,32.42
2023-06-07T14:14:37.080Z,30.69
2023-06-07T14:17:04.626Z,29.75
2023-06-07T14:19:33.528Z,29.52
2023-06-07T14:22:01.163Z,28.07
2023-06-07T14:24:28.721Z,27.47
2023-06-07T14:26:56.393Z,27.05
2023-06-07T14:29:23.985Z,28.43
2023-06-07T14:31:51.737Z,31.73
2023-06-07T14:34:19.257Z,34.31
2023-06-07T14:36:48.208Z,36.70
2023-06-07T14:39:15.778Z,38.08
2023-06-07T14:41:43.321Z,39.48
2023-06-07T14:44:10.925Z,39.23
2023-06-07T14:46:38.658Z,39.29
2023-06-07T14:49:06.232Z,39.82
2023-06-07T14:51:33.800Z,41.41
2023-06-07T14:54:06.044Z,40.84
2023-06-07T14:56:33.833Z,41.22
2023-06-07T14:59:01.586Z,42.27
2023-06-07T15:01:29.242Z,40.36
2023-06-07T15:03:56.831Z,43.58
2023-06-07T15:06:24.449Z,39.75
2023-06-07T15:08:54.696Z,37.58
2023-06-07T15:11:23.661Z,37.21
2023-06-07T15:13:51.659Z,34.97
2023-06-07T15:16:19.393Z,32.96
2023-06-07T15:18:46.945Z,30.95
2023-06-07T15:21:14.519Z,30.90
2023-06-07T15:23:42.307Z,32.97
2023-06-07T15:26:09.885Z,32.30
2023-06-07T15:28:38.732Z,31.67
2023-06-07T15:31:06.318Z,31.41
2023-06-07T15:33:34.277Z,32.55
2023-06-07T15:36:01.776Z,33.01
2023-06-07T15:38:31.315Z,32.92
2023-06-07T15:40:59.259Z,31.35
2023-06-07T15:43:26.880Z,29.76
2023-06-07T15:45:55.785Z,28.59
2023-06-07T15:48:24.285Z,27.49
2023-06-07T15:50:52.094Z,26.84
2023-06-07T15:53:19.963Z,26.14
2023-06-07T15:55:48.013Z,25.61
2023-06-07T15:58:15.544Z,25.21
2023-06-07T16:00:47.257Z,24.93
2023-06-07T16:03:16.612Z,24.77
2023-06-07T16:05:44.498Z,24.83
2023-06-07T16:08:14.310Z,24.78
2023-06-07T16:10:42.452Z,24.62
2023-06-07T16:13:10.128Z,24.47
2023-06-07T16:15:37.976Z,24.09
2023-06-07T16:18:06.039Z,23.88
2023-06-07T16:20:34.999Z,23.55
2023-06-07T16:23:02.620Z,23.21
2023-06-07T16:25:30.235Z,22.99
2023-06-07T16:27:57.799Z,22.86
2023-06-07T16:30:26.551Z,22.70
2023-06-07T16:32:55.071Z,22.48
2023-06-07T16:35:23.001Z,22.32
2023-06-07T16:37:51.912Z,22.15
2023-06-07T16:40:19.531Z,22.06
2023-06-07T16:42:47.209Z,22.27
2023-06-07T16:45:14.738Z,22.31
2023-06-07T16:47:42.373Z,22.35
2023-06-07T16:50:11.084Z,22.22
2023-06-07T16:52:38.609Z,22.16
2023-06-07T16:55:08.804Z,22.01
2023-06-07T16:57:38.824Z,21.89
2023-06-07T17:00:09.057Z,21.73
2023-06-07T17:02:36.866Z,21.76
2023-06-07T17:05:04.658Z,21.66
2023-06-07T17:07:32.189Z,21.71
2023-06-07T17:09:59.740Z,21.72
2023-06-07T17:12:28.577Z,21.66
2023-06-07T17:14:56.127Z,21.61
2023-06-07T17:17:23.706Z,21.61
2023-06-07T17:19:51.271Z,21.51
2023-06-07T17:22:18.880Z,21.44
2023-06-07T17:24:46.459Z,21.30
2023-06-07T17:27:14.425Z,21.11
2023-06-07T17:29:43.363Z,20.93
2023-06-07T17:32:11.300Z,20.87
2023-06-07T17:34:38.935Z,20.76
2023-06-07T17:37:07.413Z,20.68
2023-06-07T17:39:35.098Z,20.64
2023-06-07T17:42:02.613Z,20.59
2023-06-07T17:44:30.115Z,20.62
2023-06-07T17:46:59.010Z,20.62
2023-06-07T17:49:26.984Z,20.68
2023-06-07T17:51:56.751Z,20.67
2023-06-07T17:54:26.172Z,20.76
2023-06-07T17:56:53.676Z,20.80
2023-06-07T17:59:21.235Z,20.78
2023-06-07T18:01:52.844Z,20.76
2023-06-07T18:04:22.019Z,20.66
2023-06-07T18:06:49.589Z,20.58
2023-06-07T18:09:17.142Z,20.51
2023-06-07T18:11:44.667Z,20.54
2023-06-07T18:14:12.227Z,20.57
2023-06-07T18:16:39.866Z,20.56
2023-06-07T18:19:07.525Z,20.51
2023-06-07T18:21:37.818Z,20.52
2023-06-07T18:24:06.238Z,20.53
2023-06-07T18:26:33.814Z,20.51
2023-06-07T18:29:01.357Z,20.41
2023-06-07T18:31:28.989Z,20.31
2023-06-07T18:33:56.533Z,20.17
2023-06-07T18:36:24.392Z,20.09
2023-06-07T18:38:53.278Z,19.99
2023-06-07T18:41:20.843Z,19.97
2023-06-07T18:43:48.577Z,19.91
2023-06-07T18:46:17.769Z,19.87
2023-06-07T18:48:47.590Z,19.83
2023-06-07T18:51:15.148Z,19.74
2023-06-07T18:53:42.732Z,19.71
2023-06-07T18:56:11.829Z,19.64
2023-06-07T18:58:39.564Z,19.58
2023-06-07T19:01:08.993Z,19.52
2023-06-07T19:03:36.976Z,19.40
2023-06-07T19:06:05.052Z,19.36
2023-06-07T19:08:33.916Z,19.23
2023-06-07T19:11:02.079Z,19.13
2023-06-07T19:13:31.051Z,19.01
2023-06-07T19:15:58.617Z,18.91
2023-06-07T19:18:26.273Z,18.82
2023-06-07T19:20:53.793Z,18.72
2023-06-07T19:23:21.602Z,18.61
2023-06-07T19:25:49.113Z,18.50
2023-06-07T19:28:16.945Z,18.46
2023-06-07T19:30:46.160Z,18.39
2023-06-07T19:33:16.131Z,18.31
2023-06-07T19:35:43.721Z,18.23
2023-06-07T19:38:11.412Z,18.20
2023-06-07T19:40:38.905Z,18.16
2023-06-07T19:43:06.467Z,18.08
2023-06-07T19:45:33.989Z,18.06
2023-06-07T19:48:03.332Z,18.04
2023-06-07T19:50:30.917Z,18.03
2023-06-07T19:52:58.759Z,17.96
2023-06-07T19:55:26.751Z,17.92
2023-06-07T19:57:54.421Z,17.92
2023-06-07T20:00:22.445Z,17.84
2023-06-07T20:02:50.012Z,17.75
2023-06-07T20:05:19.023Z,17.68
2023-06-07T20:07:46.524Z,17.70
2023-06-07T20:10:14.797Z,17.69
2023-06-07T20:12:42.437Z,17.69
2023-06-07T20:15:11.262Z,17.59
2023-06-07T20:17:38.804Z,17.52
2023-06-07T20:20:07.869Z,17.48
2023-06-07T20:22:37.173Z,17.44
2023-06-07T20:25:05.101Z,17.34
2023-06-07T20:27:33.055Z,17.31
2023-06-07T20:30:01.242Z,17.29
2023-06-07T20:32:28.947Z,17.28
2023-06-07T20:34:58.602Z,17.19
2023-06-07T20:37:26.183Z,17.15
2023-06-07T20:39:55.066Z,17.06
2023-06-07T20:42:22.628Z,17.09
2023-06-07T20:44:53.686Z,17.05
2023-06-07T20:47:22.041Z,17.07
2023-06-07T20:49:49.706Z,16.98
2023-06-07T20:52:17.256Z,16.97
2023-06-07T20:54:44.887Z,16.93
2023-06-07T20:57:13.785Z,16.81
2023-06-07T20:59:45.925Z,16.74
2023-06-07T21:02:13.582Z,16.75
2023-06-07T21:04:41.153Z,16.66
2023-06-07T21:07:08.667Z,16.55
2023-06-07T21:09:36.210Z,16.54
2023-06-07T21:12:03.824Z,16.39
2023-06-07T21:14:32.700Z,16.29
2023-06-07T21:17:00.337Z,16.19
2023-06-07T21:19:27.859Z,16.14
2023-06-07T21:21:55.571Z,16.07
2023-06-07T21:24:23.266Z,16.00
2023-06-07T21:26:50.867Z,15.96
2023-06-07T21:29:18.379Z,15.91
2023-06-07T21:31:47.491Z,15.87
2023-06-07T21:34:15.220Z,15.83
2023-06-07T21:36:42.781Z,15.83
2023-06-07T21:39:10.294Z,15.85
2023-06-07T21:41:37.950Z,15.81
2023-06-07T21:44:05.632Z,15.76
2023-06-07T21:46:33.304Z,15.73
2023-06-07T21:49:02.275Z,15.63
2023-06-07T21:51:29.899Z,15.65
2023-06-07T21:53:57.440Z,15.61
2023-06-07T21:56:24.945Z,15.54
2023-06-07T21:58:52.468Z,15.43
2023-06-07T22:01:20.019Z,15.39
2023-06-07T22:03:47.606Z,15.32
2023-06-07T22:06:16.474Z,15.28
2023-06-07T22:08:44.049Z,15.23
2023-06-07T22:11:11.566Z,15.20
2023-06-07T22:13:40.562Z,15.08
2023-06-07T22:16:08.384Z,15.00
2023-06-07T22:18:36.479Z,15.00
2023-06-07T22:21:04.356Z,14.97
2023-06-07T22:23:33.452Z,14.96
2023-06-07T22:26:02.130Z,14.95
2023-06-07T22:28:30.863Z,15.00
2023-06-07T22:30:59.415Z,14.94
2023-06-07T22:33:27.030Z,14.93
2023-06-07T22:35:58.233Z,14.80
2023-06-07T22:38:26.160Z,14.80
2023-06-07T22:40:55.530Z,14.74
2023-06-07T22:43:23.075Z,14.79
2023-06-07T22:45:50.637Z,14.80
2023-06-07T22:48:19.917Z,14.81
2023-06-07T22:50:48.468Z,14.76
2023-06-07T22:53:17.240Z,14.62
2023-06-07T22:55:44.808Z,14.63
2023-06-07T22:58:13.648Z,14.63
2023-06-07T23:00:41.647Z,14.61
2023-06-07T23:03:09.368Z,14.55
2023-06-07T23:05:39.315Z,14.52
2023-06-07T23:08:08.039Z,14.54
2023-06-07T23:10:37.321Z,14.54
2023-06-07T23:13:09.292Z,14.53
2023-06-07T23:15:42.597Z,14.38
2023-06-07T23:18:11.300Z,14.46
2023-06-07T23:20:42.245Z,14.43
2023-06-07T23:23:11.144Z,14.35
2023-06-07T23:25:39.217Z,14.36
2023-06-07T23:28:06.943Z,14.29
2023-06-07T23:30:35.056Z,14.22
2023-06-07T23:33:04.566Z,14.22
2023-06-07T23:35:32.168Z,14.21
2023-06-07T23:38:00.753Z,14.18
2023-06-07T23:40:28.665Z,14.15
2023-06-07T23:42:57.783Z,14.20
2023-06-07T23:45:26.587Z,14.21
2023-06-07T23:47:54.222Z,14.08
2023-06-07T23:50:23.184Z,14.08
2023-06-07T23:52:51.007Z,14.03
2023-06-07T23:55:18.574Z,14.04
2023-06-07T23:57:46.587Z,13.97
